Terminal Aerodrome Forecast
Issued by NWS

Home | Current Version | Previous Version | Text Only | Print | Product List | Glossary On
Versions: 1 2 3 4 5 6 7 8 9 10 11 12 13 14 15 16 17 18 19
570
FTPA31 PHFO 120532
TAFHLI
TAF
PHLI 120532Z 1206/1306 21008KT P6SM VCSH SCT025 OVC040
     FM122100 36012KT 5SM -SHRA SCT015 OVC025
      TEMPO 1221/1224 2SM SHRA BR BKN015 OVC025
     FM130300 34007KT P6SM VCSH SCT020 BKN035=

USA.gov is the U.S. government's official web portal to all federal, state and local government web resources and services.